createdAt,value
2019-04-22T00:00:01.057Z,15.15
2019-04-22T00:00:44.508Z,15.19
2019-04-22T00:01:25.786Z,15.22
2019-04-22T00:02:05.606Z,15.18
2019-04-22T00:02:48.795Z,15.19
2019-04-22T00:03:33.801Z,15.16
2019-04-22T00:04:08.931Z,15.18
2019-04-22T00:04:54.414Z,15.28
2019-04-22T00:05:42.650Z,15.18
2019-04-22T00:06:23.814Z,15.13
2019-04-22T00:07:08.279Z,15.12
2019-04-22T00:07:47.758Z,15.05
2019-04-22T00:08:29.358Z,15.13
2019-04-22T00:09:10.560Z,15.07
2019-04-22T00:09:51.342Z,15.19
2019-04-22T00:10:32.022Z,15.11
2019-04-22T00:11:17.930Z,15.15
2019-04-22T00:11:52.741Z,15.11
2019-04-22T00:12:33.946Z,15
2019-04-22T00:13:16.870Z,15.04
2019-04-22T00:14:27.905Z,15.03
2019-04-22T00:15:09.588Z,15.01
2019-04-22T00:15:47.067Z,15
2019-04-22T00:16:37.568Z,15.04
2019-04-22T00:17:21.834Z,14.93
2019-04-22T00:17:59.808Z,14.9
2019-04-22T00:18:42.508Z,14.94
2019-04-22T00:19:20.486Z,14.91
2019-04-22T00:20:14.141Z,14.83
2019-04-22T00:20:35.063Z,14.94
2019-04-22T00:21:19.305Z,14.9
2019-04-22T00:22:02.334Z,14.91
2019-04-22T00:22:37.892Z,14.85
2019-04-22T00:23:18.248Z,14.83
2019-04-22T00:23:57.704Z,14.91
2019-04-22T00:24:36.493Z,14.86
2019-04-22T00:26:01.478Z,14.86
2019-04-22T00:26:43.828Z,14.79
2019-04-22T00:27:27.753Z,14.79
2019-04-22T00:28:02.171Z,14.85
2019-04-22T00:28:43.427Z,14.75
2019-04-22T00:29:42.204Z,14.74
2019-04-22T00:30:07.099Z,14.79
2019-04-22T00:30:40.290Z,14.67
2019-04-22T00:31:20.516Z,14.66
2019-04-22T00:32:04.811Z,14.71
2019-04-22T00:32:41.573Z,14.71
2019-04-22T00:33:26.211Z,14.72
2019-04-22T00:34:03.047Z,14.74
2019-04-22T00:34:42.165Z,14.61
2019-04-22T00:35:23.470Z,14.75
2019-04-22T00:36:08.512Z,14.64
2019-04-22T00:36:47.804Z,14.64
2019-04-22T00:37:28.161Z,14.64
2019-04-22T00:38:10.653Z,14.57
2019-04-22T00:38:51.261Z,14.57
2019-04-22T00:39:35.540Z,14.6
2019-04-22T00:40:14.121Z,14.52
2019-04-22T00:41:05.339Z,14.45
2019-04-22T00:41:28.395Z,14.48
2019-04-22T00:42:07.589Z,14.41
2019-04-22T00:42:52.852Z,14.48
2019-04-22T00:43:32.048Z,14.36
2019-04-22T00:44:18.716Z,14.35
2019-04-22T00:45:00.069Z,14.34
2019-04-22T00:45:38.389Z,14.27
2019-04-22T00:46:17.395Z,14.19
2019-04-22T00:46:59.370Z,14.09
2019-04-22T00:48:20.459Z,14.01
2019-04-22T00:49:35.402Z,13.93
2019-04-22T00:50:05.946Z,13.98
2019-04-22T00:50:18.670Z,13.88
2019-04-22T00:51:22.316Z,13.86
2019-04-22T00:51:43.750Z,13.76
2019-04-22T00:52:21.580Z,13.75
2019-04-22T00:53:03.685Z,13.79
2019-04-22T00:53:39.001Z,13.73
2019-04-22T00:54:21.261Z,13.72
2019-04-22T00:55:05.302Z,13.66
2019-04-22T00:55:37.422Z,13.57
2019-04-22T00:56:32.396Z,13.68
2019-04-22T00:57:01.010Z,13.62
2019-04-22T00:57:38.621Z,13.65
2019-04-22T00:58:23.884Z,13.54
2019-04-22T00:58:58.278Z,13.55
2019-04-22T00:59:44.958Z,13.53
2019-04-22T01:00:24.509Z,13.5
2019-04-22T01:01:07.658Z,13.55
2019-04-22T01:01:42.478Z,13.47
2019-04-22T01:02:26.015Z,13.59
2019-04-22T01:03:09.736Z,13.55
2019-04-22T01:03:49.080Z,13.47
2019-04-22T01:04:34.419Z,13.54
2019-04-22T01:05:07.222Z,13.51
2019-04-22T01:05:46.409Z,13.5
2019-04-22T01:06:25.349Z,13.5
2019-04-22T01:07:03.420Z,13.48
2019-04-22T01:07:47.726Z,13.48
2019-04-22T01:08:30.049Z,13.54
2019-04-22T01:09:09.902Z,13.61
2019-04-22T01:09:51.561Z,13.51
2019-04-22T01:10:31.562Z,13.53
2019-04-22T01:11:16.532Z,13.46
2019-04-22T01:11:58.961Z,13.53
2019-04-22T01:12:31.499Z,13.44
2019-04-22T01:13:11.224Z,13.48
2019-04-22T01:13:49.381Z,13.53
2019-04-22T01:14:33.835Z,13.44
2019-04-22T01:15:14.633Z,13.44
2019-04-22T01:15:57.017Z,13.43
2019-04-22T01:16:35.450Z,13.43
2019-04-22T01:17:11.313Z,13.48
2019-04-22T01:17:50.623Z,13.43
2019-04-22T01:18:35.791Z,13.48
2019-04-22T01:19:12.074Z,13.46
2019-04-22T01:19:55.838Z,13.44
2019-04-22T01:21:00.378Z,13.39
2019-04-22T01:21:22.465Z,13.31
2019-04-22T01:22:12.808Z,13.35
2019-04-22T01:22:31.638Z,13.36
2019-04-22T01:23:17.800Z,13.35
2019-04-22T01:23:51.740Z,13.29
2019-04-22T01:24:32.179Z,13.36
2019-04-22T01:25:14.253Z,13.35
2019-04-22T01:25:49.189Z,13.38
2019-04-22T01:26:33.928Z,13.36
2019-04-22T01:27:11.313Z,13.41
2019-04-22T01:27:52.706Z,13.32
2019-04-22T01:28:30.027Z,13.44
2019-04-22T01:29:08.136Z,13.41
2019-04-22T01:29:48.803Z,13.48
2019-04-22T01:30:26.371Z,13.48
2019-04-22T01:31:04.624Z,13.48
2019-04-22T01:31:40.539Z,13.44
2019-04-22T01:32:23.787Z,13.51
2019-04-22T01:33:09.010Z,13.51
2019-04-22T01:33:45.475Z,13.36
2019-04-22T01:34:33.031Z,13.36
2019-04-22T01:35:12.701Z,13.35
2019-04-22T01:36:01.276Z,13.32
2019-04-22T01:36:41.310Z,13.36
2019-04-22T01:37:19.647Z,13.32
2019-04-22T01:37:59.648Z,13.31
2019-04-22T01:38:45.118Z,13.24
2019-04-22T01:39:28.584Z,13.32
2019-04-22T01:40:09.510Z,13.32
2019-04-22T01:40:52.427Z,13.47
2019-04-22T01:41:32.003Z,13.39
2019-04-22T01:42:55.594Z,13.44
2019-04-22T01:43:40.650Z,13.38
2019-04-22T01:44:56.542Z,13.35
2019-04-22T01:45:39.091Z,13.38
2019-04-22T01:46:24.554Z,13.29
2019-04-22T01:47:09.914Z,13.35
2019-04-22T01:47:43.029Z,13.28
2019-04-22T01:48:25.922Z,13.24
2019-04-22T01:49:07.610Z,13.22
2019-04-22T01:49:45.732Z,13.17
2019-04-22T01:50:25.662Z,13.1
2019-04-22T01:51:00.604Z,13.14
2019-04-22T01:52:28.993Z,13.1
2019-04-22T01:53:10.231Z,13.04
2019-04-22T01:53:49.904Z,13.03
2019-04-22T01:54:34.807Z,12.95
2019-04-22T01:55:17.302Z,13.07
2019-04-22T01:55:49.557Z,12.96
2019-04-22T01:56:32.856Z,12.98
2019-04-22T01:57:09.688Z,12.92
2019-04-22T01:57:47.181Z,12.99
2019-04-22T01:58:28.523Z,12.98
2019-04-22T01:59:04.739Z,12.87
2019-04-22T01:59:45.330Z,12.92
2019-04-22T02:00:35.359Z,12.84
2019-04-22T02:01:13.062Z,12.94
2019-04-22T02:01:54.891Z,12.8
2019-04-22T02:02:35.217Z,12.85
2019-04-22T02:03:17.039Z,12.79
2019-04-22T02:04:00.720Z,12.79
2019-04-22T02:04:42.860Z,12.85
2019-04-22T02:05:17.499Z,12.8
2019-04-22T02:05:58.650Z,12.8
2019-04-22T02:06:41.940Z,12.81
2019-04-22T02:07:16.036Z,12.92
2019-04-22T02:07:55.930Z,12.95
2019-04-22T02:09:00.355Z,12.91
2019-04-22T02:09:22.277Z,13.03
2019-04-22T02:10:18.581Z,13.06
2019-04-22T02:10:54.269Z,13.03
2019-04-22T02:11:25.389Z,13.01
2019-04-22T02:12:05.684Z,13.03
2019-04-22T02:12:45.026Z,13.04
2019-04-22T02:13:21.182Z,13.06
2019-04-22T02:14:03.833Z,13.09
2019-04-22T02:14:43.856Z,12.98
2019-04-22T02:15:23.148Z,12.95
2019-04-22T02:16:05.523Z,12.92
2019-04-22T02:16:49.593Z,12.85
2019-04-22T02:17:31.367Z,12.84
2019-04-22T02:18:09.454Z,12.8
2019-04-22T02:18:44.034Z,12.76
2019-04-22T02:19:30.160Z,12.85
2019-04-22T02:21:01.169Z,12.81
2019-04-22T02:21:28.018Z,12.81
2019-04-22T02:22:06.917Z,12.79
2019-04-22T02:22:59.685Z,12.79
2019-04-22T02:24:08.807Z,12.81
2019-04-22T02:24:50.755Z,12.8
2019-04-22T02:25:32.110Z,12.77
2019-04-22T02:26:46.259Z,12.77
2019-04-22T02:27:38.814Z,12.81
2019-04-22T02:28:15.025Z,12.77
2019-04-22T02:28:44.044Z,12.79
2019-04-22T02:29:34.243Z,12.8
2019-04-22T02:30:13.556Z,12.8
2019-04-22T02:31:44.000Z,12.77
2019-04-22T02:32:26.759Z,12.79
2019-04-22T02:33:10.822Z,12.77
2019-04-22T02:34:00.568Z,12.77
2019-04-22T02:34:21.186Z,12.77
2019-04-22T02:35:03.296Z,12.77
2019-04-22T02:35:57.133Z,12.8
2019-04-22T02:37:02.314Z,12.91
2019-04-22T02:39:03.769Z,13.07
2019-04-22T02:39:46.580Z,13.17
2019-04-22T02:40:29.989Z,13.22
2019-04-22T02:41:40.668Z,13.35
2019-04-22T02:42:15.961Z,13.39
2019-04-22T02:43:10.995Z,13.38
2019-04-22T02:44:27.768Z,13.35
2019-04-22T02:45:25.294Z,13.21
2019-04-22T02:46:02.026Z,13.24
2019-04-22T02:47:49.682Z,13.1
2019-04-22T02:48:45.386Z,13.06
2019-04-22T02:50:27.855Z,13.1
2019-04-22T02:51:16.148Z,13.06
2019-04-22T02:51:42.959Z,13.13
2019-04-22T02:52:36.645Z,13.06
2019-04-22T02:53:29.176Z,12.98
2019-04-22T02:55:14.670Z,12.84
2019-04-22T02:56:11.895Z,12.79
2019-04-22T02:57:29.566Z,12.88
2019-04-22T02:57:54.513Z,12.88
2019-04-22T02:59:21.749Z,12.96
2019-04-22T03:00:05.377Z,12.92
2019-04-22T03:01:29.387Z,12.92
2019-04-22T03:01:52.996Z,12.85
2019-04-22T03:03:30.777Z,12.77
2019-04-22T03:04:04.240Z,12.77
2019-04-22T03:04:43.501Z,12.8
2019-04-22T03:05:26.400Z,12.79
2019-04-22T03:12:15.984Z,12.79
2019-04-22T03:13:54.939Z,12.63
2019-04-22T03:14:40.167Z,12.67
2019-04-22T03:15:29.587Z,12.56
2019-04-22T03:16:50.076Z,12.52
2019-04-22T03:20:13.890Z,12.37
2019-04-22T03:21:36.408Z,12.3
2019-04-22T03:23:05.128Z,12.26
2019-04-22T03:24:05.670Z,12.19
2019-04-22T03:24:33.030Z,12.15
2019-04-22T03:25:31.657Z,12.16
2019-04-22T03:25:58.403Z,12.15
2019-04-22T03:26:26.787Z,12.08
2019-04-22T03:27:00.459Z,12.08
2019-04-22T03:27:38.559Z,12
2019-04-22T03:28:28.931Z,12.04
2019-04-22T03:29:56.027Z,11.9
2019-04-22T03:31:18.267Z,11.93
2019-04-22T03:32:50.938Z,11.98
2019-04-22T03:33:15.642Z,11.9
2019-04-22T03:34:14.123Z,11.87
2019-04-22T03:37:03.442Z,11.87
2019-04-22T03:37:20.224Z,11.84
2019-04-22T03:38:40.829Z,11.85
2019-04-22T03:39:27.211Z,11.79
2019-04-22T03:41:36.319Z,11.87
2019-04-22T03:42:06.741Z,11.77
2019-04-22T03:42:31.620Z,11.77
2019-04-22T03:43:34.874Z,11.7
2019-04-22T03:44:07.447Z,11.74
2019-04-22T03:45:45.486Z,11.78
2019-04-22T03:46:41.594Z,11.81
2019-04-22T03:47:25.859Z,11.94
2019-04-22T03:47:55.723Z,11.98
2019-04-22T03:48:35.693Z,11.98
2019-04-22T03:49:27.980Z,11.93
2019-04-22T03:50:03.734Z,11.98
2019-04-22T03:51:24.623Z,11.98
2019-04-22T03:52:34.458Z,11.98
2019-04-22T03:53:32.553Z,11.9
2019-04-22T03:54:45.315Z,11.84
2019-04-22T03:55:20.954Z,11.72
2019-04-22T03:56:01.841Z,11.77
2019-04-22T03:58:00.983Z,11.77
2019-04-22T03:58:47.692Z,11.72
2019-04-22T03:59:41.020Z,11.74
2019-04-22T04:00:06.456Z,11.78
2019-04-22T04:01:36.259Z,11.88
2019-04-22T04:02:12.876Z,11.97
2019-04-22T04:02:53.666Z,12
2019-04-22T04:03:28.029Z,11.97
2019-04-22T04:04:49.177Z,11.98
2019-04-22T04:05:45.162Z,11.93
2019-04-22T04:06:16.804Z,11.97
2019-04-22T04:07:10.313Z,11.97
2019-04-22T04:07:47.091Z,12.04
2019-04-22T04:08:58.699Z,11.94
2019-04-22T04:10:52.588Z,12.13
2019-04-22T04:11:51.499Z,12.04
2019-04-22T04:12:37.150Z,12.12
2019-04-22T04:13:02.601Z,12.12
2019-04-22T04:13:38.985Z,12.12
2019-04-22T04:14:26.048Z,12
2019-04-22T04:15:46.013Z,12.15
2019-04-22T04:16:29.661Z,12.25
2019-04-22T04:18:18.518Z,12.25
2019-04-22T04:19:12.882Z,12.29
2019-04-22T04:19:55.848Z,12.19
2019-04-22T04:20:28.288Z,12.25
2019-04-22T04:21:20.392Z,12.18
2019-04-22T04:21:40.531Z,12.23
2019-04-22T04:23:16.441Z,12.11
2019-04-22T04:24:00.525Z,12.16
2019-04-22T04:25:46.362Z,12.12
2019-04-22T04:28:09.875Z,12.12
2019-04-22T05:07:35.821Z,15.81
2019-04-22T05:08:27.174Z,15.92
2019-04-22T05:09:14.325Z,16.04
2019-04-22T05:09:42.579Z,16.17
2019-04-22T05:10:40.944Z,16.34
2019-04-22T05:12:00.768Z,16.5
2019-04-22T05:13:10.005Z,16.84
2019-04-22T05:14:28.309Z,16.9
2019-04-22T05:15:18.261Z,17.07
2019-04-22T05:15:59.250Z,17.1
2019-04-22T05:16:32.195Z,17.25
2019-04-22T05:17:12.491Z,17.4
2019-04-22T05:19:14.929Z,17.7
2019-04-22T05:19:46.301Z,17.79
2019-04-22T05:20:40.357Z,17.71
2019-04-22T05:21:11.979Z,17.86
2019-04-22T05:21:52.917Z,17.99
2019-04-22T05:22:33.446Z,18.01
2019-04-22T05:23:15.818Z,18.21
2019-04-22T05:23:52.220Z,18.31
2019-04-22T05:25:48.447Z,18.54
2019-04-22T05:26:32.361Z,18.66
2019-04-22T05:27:19.501Z,18.68
2019-04-22T05:27:56.881Z,18.72
2019-04-22T05:28:29.791Z,18.66
2019-04-22T05:29:16.819Z,18.59
2019-04-22T05:30:31.832Z,18.36
2019-04-22T05:31:21.079Z,18.35
2019-04-22T05:31:56.245Z,18.34
2019-04-22T05:32:36.841Z,18.34
2019-04-22T05:33:13.892Z,18.35
2019-04-22T05:33:56.076Z,18.47
2019-04-22T05:34:39.657Z,18.5
2019-04-22T05:35:20.020Z,18.66
2019-04-22T05:36:01.315Z,18.75
2019-04-22T05:36:39.895Z,18.84
2019-04-22T05:37:20.401Z,18.9
2019-04-22T05:38:02.256Z,18.84
2019-04-22T05:38:46.148Z,18.84
2019-04-22T05:39:35.484Z,18.91
2019-04-22T05:40:08.318Z,18.97
2019-04-22T05:40:34.006Z,18.99
2019-04-22T05:41:28.551Z,19.06
2019-04-22T05:42:08.324Z,18.9
2019-04-22T05:42:49.283Z,18.87
2019-04-22T05:43:40.155Z,18.66
2019-04-22T05:44:22.034Z,18.5
2019-04-22T05:45:02.465Z,18.36
2019-04-22T05:45:42.820Z,18.39
2019-04-22T05:46:28.138Z,18.32
2019-04-22T05:47:07.833Z,18.2
2019-04-22T05:47:51.692Z,18.09
2019-04-22T05:48:32.888Z,17.96
2019-04-22T05:49:17.603Z,17.84
2019-04-22T05:49:47.277Z,17.74
2019-04-22T05:50:26.511Z,17.55
2019-04-22T05:51:17.580Z,17.47
2019-04-22T05:51:54.416Z,17.27
2019-04-22T05:52:40.243Z,17.09
2019-04-22T05:53:25.242Z,17.03
2019-04-22T05:54:14.323Z,16.81
2019-04-22T05:55:01.830Z,16.73
2019-04-22T05:56:32.360Z,16.7
2019-04-22T05:57:09.191Z,16.62
2019-04-22T06:01:56.263Z,16.91
2019-04-22T06:02:52.778Z,16.92
2019-04-22T06:03:28.204Z,17
2019-04-22T06:04:09.441Z,17.17
2019-04-22T06:04:58.112Z,17.28
2019-04-22T06:05:34.167Z,17.39
2019-04-22T06:06:53.426Z,17.68
2019-04-22T06:07:31.138Z,17.77
2019-04-22T06:08:16.526Z,17.87
2019-04-22T06:09:09.958Z,17.96
2019-04-22T06:09:38.615Z,18.01
2019-04-22T06:10:38.821Z,18.14
2019-04-22T06:11:07.957Z,18.17
2019-04-22T06:11:31.770Z,18.34
2019-04-22T06:12:16.812Z,18.32
2019-04-22T06:13:00.621Z,18.39
2019-04-22T06:13:38.276Z,18.41
2019-04-22T06:14:19.904Z,18.41
2019-04-22T06:15:03.270Z,18.42
2019-04-22T06:15:42.455Z,18.51
2019-04-22T06:16:30.492Z,18.53
2019-04-22T06:17:10.154Z,18.69
2019-04-22T06:17:54.572Z,18.71
2019-04-22T06:18:33.105Z,18.76
2019-04-22T06:19:13.338Z,18.91
2019-04-22T06:19:50.307Z,18.84
2019-04-22T06:20:36.745Z,18.94
2019-04-22T06:21:18.380Z,18.83
2019-04-22T06:24:55.045Z,19.13
2019-04-22T06:27:07.588Z,18.94
2019-04-22T06:28:40.414Z,19.02
2019-04-22T06:29:14.622Z,19.05
2019-04-22T06:29:44.215Z,19.1
2019-04-22T06:30:41.238Z,19.31
2019-04-22T06:31:24.072Z,19.4
2019-04-22T06:32:39.347Z,19.46
2019-04-22T06:33:25.895Z,19.58
2019-04-22T06:34:47.989Z,19.28
2019-04-22T06:36:12.657Z,19.1
2019-04-22T06:36:59.067Z,19.07
2019-04-22T06:37:33.502Z,19.3
2019-04-22T06:48:18.772Z,19.97
2019-04-22T06:48:54.255Z,19.87
2019-04-22T06:50:22.861Z,19.7
2019-04-22T06:50:59.907Z,19.78
2019-04-22T06:51:44.653Z,19.76
2019-04-22T06:52:27.795Z,19.95
2019-04-22T06:53:08.809Z,20.08
2019-04-22T06:53:53.498Z,20.1
2019-04-22T06:54:32.394Z,20.08
2019-04-22T06:55:14.984Z,20.04
2019-04-22T06:55:51.116Z,20.08
2019-04-22T06:56:34.578Z,20.04
2019-04-22T06:57:11.368Z,20.12
2019-04-22T06:57:57.991Z,20.08
2019-04-22T06:58:39.341Z,20.17
2019-04-22T06:59:17.917Z,20.26
2019-04-22T06:59:58.416Z,20.3
2019-04-22T07:00:41.433Z,20.3
2019-04-22T07:01:35.347Z,20.26
2019-04-22T07:02:01.996Z,20.27
2019-04-22T07:02:55.708Z,20.33
2019-04-22T07:04:02.611Z,20.13
2019-04-22T07:04:48.973Z,20.12
2019-04-22T07:05:32.407Z,20.1
2019-04-22T07:06:12.467Z,20.12
2019-04-22T07:06:53.951Z,19.97
2019-04-22T07:07:30.973Z,19.97
2019-04-22T07:08:38.931Z,20.04
2019-04-22T07:09:20.398Z,20.1
2019-04-22T07:09:40.953Z,20.25
2019-04-22T07:11:10.760Z,20.19
2019-04-22T07:11:42.806Z,20.15
2019-04-22T07:12:28.630Z,20.16
2019-04-22T07:13:10.507Z,20.3
2019-04-22T07:13:48.134Z,20.31
2019-04-22T07:14:28.068Z,20.34
2019-04-22T07:15:10.885Z,20.33
2019-04-22T07:16:50.897Z,20.31
2019-04-22T07:17:27.386Z,20.31
2019-04-22T07:17:54.838Z,20.37
2019-04-22T07:19:13.410Z,20.64
2019-04-22T07:19:46.942Z,20.68
2019-04-22T07:20:36.141Z,20.69
2019-04-22T07:21:19.241Z,20.6
2019-04-22T07:22:02.852Z,20.53
2019-04-22T07:22:39.640Z,20.48
2019-04-22T07:24:19.876Z,20.33
2019-04-22T07:24:45.386Z,20.27
2019-04-22T07:25:22.901Z,20.31
2019-04-22T07:26:04.086Z,20.35
2019-04-22T07:26:44.696Z,20.34
2019-04-22T07:27:40.281Z,20.4
2019-04-22T07:28:04.908Z,20.38
2019-04-22T07:28:43.639Z,20.3
2019-04-22T07:29:24.742Z,20.35
2019-04-22T07:30:14.554Z,20.31
2019-04-22T07:30:52.658Z,20.26
2019-04-22T07:31:49.175Z,20.31
2019-04-22T07:32:12.824Z,20.26
2019-04-22T07:33:37.346Z,20.48
2019-04-22T07:34:19.029Z,20.6
2019-04-22T07:34:58.080Z,20.54
2019-04-22T07:35:45.781Z,20.46
2019-04-22T07:36:53.169Z,20.42
2019-04-22T07:37:08.435Z,20.41
2019-04-22T07:38:29.439Z,20.5
2019-04-22T07:39:03.838Z,20.41
2019-04-22T07:40:26.475Z,20.5
2019-04-22T07:40:59.109Z,20.61
2019-04-22T07:41:42.809Z,20.66
2019-04-22T07:43:11.400Z,20.87
2019-04-22T07:44:30.701Z,21.05
2019-04-22T07:45:09.610Z,20.97
2019-04-22T07:45:53.101Z,20.96
2019-04-22T07:46:33.368Z,20.87
2019-04-22T07:47:18.243Z,20.87
2019-04-22T07:47:51.911Z,20.96
2019-04-22T07:49:10.335Z,20.78
2019-04-22T07:49:50.621Z,20.73
2019-04-22T07:50:42.596Z,20.63
2019-04-22T07:51:12.831Z,20.5
2019-04-22T07:51:49.319Z,20.48
2019-04-22T07:52:33.264Z,20.4
2019-04-22T07:53:09.874Z,20.46
2019-04-22T07:53:55.661Z,20.6
2019-04-22T07:54:31.409Z,20.69
2019-04-22T07:55:11.500Z,20.79
2019-04-22T07:55:57.214Z,20.88
2019-04-22T07:56:36.171Z,20.82
2019-04-22T07:57:19.550Z,20.69
2019-04-22T07:57:58.093Z,20.69
2019-04-22T07:58:35.329Z,20.66
2019-04-22T07:59:15.018Z,20.72
2019-04-22T08:00:02.722Z,20.88
2019-04-22T08:00:38.409Z,21
2019-04-22T08:01:20.044Z,21.05
2019-04-22T08:01:55.635Z,20.93
2019-04-22T08:02:43.500Z,20.98
2019-04-22T08:03:26.536Z,20.91
2019-04-22T08:04:06.783Z,21.12
2019-04-22T08:05:04.951Z,21.28
2019-04-22T08:05:24.345Z,21.42
2019-04-22T08:06:51.404Z,21.73
2019-04-22T08:07:29.632Z,21.99
2019-04-22T08:08:12.896Z,22.06
2019-04-22T08:08:50.949Z,22.06
2019-04-22T08:09:35.438Z,22.05
2019-04-22T08:10:14.110Z,22.3
2019-04-22T08:10:56.589Z,22.38
2019-04-22T08:11:49.572Z,22.44
2019-04-22T08:12:09.641Z,22.39
2019-04-22T08:12:50.452Z,22.21
2019-04-22T08:14:14.046Z,21.73
2019-04-22T08:14:51.911Z,21.66
2019-04-22T08:16:15.866Z,21.59
2019-04-22T08:17:07.116Z,21.59
2019-04-22T08:18:17.093Z,21.81
2019-04-22T08:19:02.818Z,21.68
2019-04-22T08:19:41.535Z,21.68
2019-04-22T08:20:22.277Z,21.63
2019-04-22T08:20:58.156Z,21.56
2019-04-22T08:21:38.045Z,21.59
2019-04-22T08:22:13.861Z,21.63
2019-04-22T08:23:04.053Z,21.59
2019-04-22T08:23:41.494Z,21.68
2019-04-22T08:24:22.070Z,21.89
2019-04-22T08:25:00.122Z,21.94
2019-04-22T08:25:42.324Z,21.94
2019-04-22T08:26:27.212Z,22.08
2019-04-22T08:27:04.296Z,21.99
2019-04-22T08:27:42.616Z,22.04
2019-04-22T08:28:30.141Z,22.2
2019-04-22T08:29:05.470Z,22.41
2019-04-22T08:29:51.834Z,22.44
2019-04-22T08:30:47.289Z,22.44
2019-04-22T08:31:07.476Z,22.3
2019-04-22T08:31:48.411Z,22.33
2019-04-22T08:32:27.812Z,22.42
2019-04-22T08:33:09.200Z,22.56
2019-04-22T08:33:46.327Z,22.84
2019-04-22T08:34:29.036Z,22.93
2019-04-22T08:35:12.860Z,22.89
2019-04-22T08:36:05.951Z,22.88
2019-04-22T08:36:40.355Z,22.93
2019-04-22T08:37:41.261Z,22.89
2019-04-22T08:38:39.174Z,23.11
2019-04-22T08:39:18.523Z,23.12
2019-04-22T08:39:59.755Z,23.23
2019-04-22T08:40:41.641Z,23.19
2019-04-22T08:41:27.117Z,23.07
2019-04-22T08:41:50.749Z,23.07
2019-04-22T08:42:49.352Z,23.11
2019-04-22T08:43:26.563Z,23.09
2019-04-22T08:44:16.601Z,23.06
2019-04-22T08:45:31.636Z,23.32
2019-04-22T08:46:04.864Z,23.38
2019-04-22T08:46:48.404Z,23.47
2019-04-22T08:48:07.379Z,23.59
2019-04-22T08:48:49.303Z,23.53
2019-04-22T08:49:31.782Z,23.44
2019-04-22T08:50:19.568Z,23.49
2019-04-22T08:50:50.543Z,23.75
2019-04-22T08:51:48.476Z,23.68
2019-04-22T08:52:08.404Z,23.52
2019-04-22T08:52:47.954Z,23.42
2019-04-22T08:53:31.242Z,23.32
2019-04-22T08:54:11.495Z,23.07
2019-04-22T08:54:56.697Z,23.14
2019-04-22T08:55:38.048Z,23.09
2019-04-22T08:56:56.457Z,22.66
2019-04-22T08:57:46.697Z,22.45
2019-04-22T08:59:01.346Z,22.24
2019-04-22T08:59:36.467Z,22.45
2019-04-22T09:00:19.439Z,22.49
2019-04-22T09:01:03.996Z,22.59
2019-04-22T09:01:37.560Z,22.64
2019-04-22T09:02:25.607Z,22.59
2019-04-22T09:03:04.231Z,22.56
2019-04-22T09:03:45.398Z,22.51
2019-04-22T09:04:15.950Z,22.59
2019-04-22T09:04:59.671Z,22.72
2019-04-22T09:07:46.057Z,23.47
2019-04-22T09:08:26.124Z,23.42
2019-04-22T09:09:50.074Z,23.31
2019-04-22T09:10:29.584Z,23.19
2019-04-22T09:11:12.983Z,23.19
2019-04-22T09:11:54.213Z,23.15
2019-04-22T09:12:46.582Z,23.34
2019-04-22T09:13:05.589Z,23.37
2019-04-22T09:13:54.707Z,23.56
2019-04-22T09:14:37.375Z,23.59
2019-04-22T09:15:18.163Z,23.82
2019-04-22T09:15:55.243Z,23.67
2019-04-22T09:16:42.481Z,23.68
2019-04-22T09:17:19.768Z,23.52
2019-04-22T09:18:01.627Z,23.34
2019-04-22T09:18:40.817Z,23.23
2019-04-22T09:19:16.493Z,23.42
2019-04-22T09:19:59.787Z,23.44
2019-04-22T09:21:25.736Z,23.39
2019-04-22T09:22:04.307Z,23.54
2019-04-22T09:22:46.583Z,23.63
2019-04-22T09:23:30.000Z,23.87
2019-04-22T09:24:09.922Z,23.93
2019-04-22T09:24:46.712Z,24.11
2019-04-22T09:25:29.301Z,24.08
2019-04-22T09:26:08.490Z,24.12
2019-04-22T09:26:47.282Z,24.08
2019-04-22T09:28:13.695Z,24.14
2019-04-22T09:28:57.958Z,24.21
2019-04-22T09:30:18.267Z,24.49
2019-04-22T09:30:54.768Z,24.56
2019-04-22T09:32:32.559Z,24.37
2019-04-22T09:33:00.866Z,24.51
2019-04-22T09:33:42.929Z,24.37
2019-04-22T09:34:13.584Z,24.33
2019-04-22T09:34:56.053Z,24.18
2019-04-22T09:35:44.881Z,24.12
2019-04-22T09:36:28.698Z,23.97
2019-04-22T09:37:05.779Z,24.04
2019-04-22T09:38:37.425Z,24.31
2019-04-22T09:39:00.464Z,24.31
2019-04-22T09:39:40.580Z,24.26
2019-04-22T09:40:21.533Z,24.41
2019-04-22T09:40:58.177Z,24.49
2019-04-22T09:41:46.070Z,24.48
2019-04-22T09:42:23.587Z,24.29
2019-04-22T09:43:02.250Z,24.26
2019-04-22T09:44:30.703Z,23.75
2019-04-22T09:45:05.537Z,23.71
2019-04-22T09:45:47.571Z,23.63
2019-04-22T09:46:28.131Z,23.56
2019-04-22T09:47:06.047Z,23.69
2019-04-22T09:47:54.747Z,23.81
2019-04-22T09:48:29.474Z,24.08
2019-04-22T09:49:11.577Z,24.21
2019-04-22T09:49:54.690Z,24.33
2019-04-22T09:50:34.548Z,24.31
2019-04-22T09:51:11.322Z,24.46
2019-04-22T09:51:51.821Z,24.6
2019-04-22T09:52:35.498Z,24.45
2019-04-22T09:53:14.660Z,24.31
2019-04-22T09:53:58.739Z,24.37
2019-04-22T09:55:16.565Z,24.41
2019-04-22T09:55:56.589Z,24.44
2019-04-22T09:56:37.157Z,24.59
2019-04-22T09:57:14.974Z,24.68
2019-04-22T09:57:55.490Z,24.7
2019-04-22T09:58:39.266Z,24.67
2019-04-22T09:59:20.027Z,24.7
2019-04-22T10:00:02.047Z,24.82
2019-04-22T10:00:42.445Z,24.94
2019-04-22T10:02:12.716Z,25.08
2019-04-22T10:03:19.415Z,25.04
2019-04-22T10:04:00.442Z,25.12
2019-04-22T10:04:46.373Z,25.22
2019-04-22T10:05:27.285Z,25.3
2019-04-22T10:06:09.714Z,25.45
2019-04-22T10:06:53.835Z,25.57
2019-04-22T10:07:25.539Z,25.78
2019-04-22T10:08:06.437Z,25.85
2019-04-22T10:10:08.770Z,26.16
2019-04-22T10:10:48.540Z,25.96
2019-04-22T10:11:32.377Z,25.9
2019-04-22T10:12:09.702Z,25.83
2019-04-22T10:13:02.525Z,25.82
2019-04-22T10:13:34.214Z,25.85
2019-04-22T10:14:12.006Z,25.74
2019-04-22T10:14:48.886Z,25.72
2019-04-22T10:15:32.119Z,25.59
2019-04-22T10:16:16.939Z,25.69
2019-04-22T10:16:47.756Z,25.76
2019-04-22T10:17:31.230Z,25.74
2019-04-22T10:18:16.075Z,25.75
2019-04-22T10:19:35.699Z,26
2019-04-22T10:20:10.035Z,25.98
2019-04-22T10:21:00.243Z,26.12
2019-04-22T10:22:19.089Z,26.31
2019-04-22T10:22:56.966Z,26.41
2019-04-22T10:23:37.398Z,26.61
2019-04-22T10:24:13.377Z,26.59
2019-04-22T10:24:56.700Z,26.71
2019-04-22T10:25:34.592Z,26.72
2019-04-22T10:26:21.238Z,26.46
2019-04-22T10:26:56.194Z,26.42
2019-04-22T10:27:39.346Z,26.42
2019-04-22T10:28:22.980Z,26.41
2019-04-22T10:29:46.882Z,26.49
2019-04-22T11:09:49.129Z,27.16
2019-04-22T11:10:35.109Z,27.34
2019-04-22T11:11:15.003Z,27.2
2019-04-22T11:11:48.486Z,27.13
2019-04-22T11:12:25.103Z,27.08
2019-04-22T11:13:02.971Z,26.9
2019-04-22T11:13:43.924Z,26.72
2019-04-22T11:14:23.297Z,26.68
2019-04-22T11:15:03.573Z,26.68
2019-04-22T11:15:44.568Z,26.64
2019-04-22T11:16:25.666Z,26.49
2019-04-22T11:17:05.643Z,26.54
2019-04-22T11:17:45.114Z,26.47
2019-04-22T11:18:25.575Z,26.38
2019-04-22T11:19:07.573Z,26.24
2019-04-22T11:19:47.855Z,26.21
2019-04-22T11:20:29.198Z,26.23
2019-04-22T11:21:09.609Z,26.19
2019-04-22T11:21:59.811Z,26.29
2019-04-22T11:22:34.887Z,26.31
2019-04-22T11:23:12.170Z,26.34
2019-04-22T11:23:52.613Z,26.31
2019-04-22T11:24:32.992Z,26.36
2019-04-22T11:25:13.813Z,26.49
2019-04-22T11:25:54.064Z,26.59
2019-04-22T11:26:34.599Z,26.56
2019-04-22T11:27:14.948Z,26.16
2019-04-22T11:27:55.761Z,26.13
2019-04-22T11:28:35.844Z,26.13
2019-04-22T11:29:19.415Z,26.01
2019-04-22T11:29:59.457Z,25.94
2019-04-22T11:30:40.477Z,25.98
2019-04-22T11:31:20.697Z,25.97
2019-04-22T11:32:00.256Z,26.03
2019-04-22T11:32:40.564Z,25.89
2019-04-22T11:33:22.473Z,25.98
2019-04-22T11:34:02.635Z,25.94
2019-04-22T11:34:43.620Z,26.17
2019-04-22T11:35:23.890Z,26.13
2019-04-22T11:36:04.156Z,26.23
2019-04-22T11:36:44.982Z,26.27
2019-04-22T11:37:24.952Z,26.29
2019-04-22T11:38:06.601Z,26.34
2019-04-22T11:38:51.924Z,26.42
2019-04-22T11:39:29.297Z,26.46
2019-04-22T11:40:16.423Z,26.44
2019-04-22T11:40:50.371Z,26.53
2019-04-22T11:41:27.745Z,26.65
2019-04-22T11:42:09.981Z,26.79
2019-04-22T11:42:50.257Z,26.86
2019-04-22T11:43:30.499Z,27.08
2019-04-22T11:44:12.251Z,27.15
2019-04-22T11:44:53.063Z,27.21
2019-04-22T11:45:33.327Z,27.24
2019-04-22T11:46:13.529Z,27.23
2019-04-22T11:46:53.899Z,27.4
2019-04-22T11:47:37.337Z,27.11
2019-04-22T11:48:17.586Z,27.11